AirNav   Everest Fuels
 
 1550 users online  

I93 Breckinridge County Airport
Hardinsburg, Kentucky, USA

GOING TO HARDINSBURG?


FAA INFORMATION EFFECTIVE 02 JANUARY 2020

Location

FAA Identifier: I93
Lat/Long: 37-47-05.3000N 086-26-28.6000W
37-47.088333N 086-26.476667W
37.7848056,-86.4412778
(estimated)
Elevation: 732.1 ft. / 223.1 m (surveyed)
Variation: 04W (2020)
From city: 1 mile E of HARDINSBURG, KY
Time zone: UTC -6 (UTC -5 during Daylight Saving Time)
Zip code: 40143

Airport Operations

Airport use: Open to the public
Activation date: 04/1968
Control tower: no
ARTCC: INDIANAPOLIS CENTER
FSS: LOUISVILLE FLIGHT SERVICE STATION
NOTAMs facility: LOU (NOTAM-D service available)
Attendance: UNATNDD
Wind indicator: lighted
Segmented circle: no
Lights: ACTVT REIL RYS 10 & 28; PAPI RYS 10 & 28; MIRL RY 10/28 - 122.9.
Beacon: white-green (lighted land airport)
Operates sunset to sunrise.

Airport Communications

CTAF: 122.9
LOUISVILLE APPROACH: 132.075
LOUISVILLE DEPARTURE: 132.075

Nearby radio navigation aids

VOR radial/distance  VOR name  Freq  Var
MYSr236/(11.4)MYSTIC VOR108.2001W
FTKr253/23.4FORT KNOX VOR/DME109.6001W
OWBr090/34.5OWENSBORO VOR/DME108.6004W
EWOr283/37.5NEW HOPE VOR/DME110.8001E

 
NDB name  Hdg/Dist  Freq  Var  ID
GODMAN248/24.439603WGOI --. --- ..

Airport Services

Fuel available: 100LL
Parking: tiedowns
Airframe service: NONE
Powerplant service: NONE
Bottled oxygen: NONE
Bulk oxygen: NONE

Runway Information

Runway 10/28

Dimensions: 4000 x 75 ft. / 1219 x 23 m
Surface: concrete, in good condition
Weight bearing capacity: 
PCN 11 /R/C/W/U
Runway edge lights: medium intensity
RUNWAY 10  RUNWAY 28
Latitude: 37-47.127623N37-47.049373N
Longitude: 086-26.888250W086-26.063687W
Elevation: 714.2 ft.732.1 ft.
Traffic pattern: leftleft
Markings: nonprecision, in good conditionnonprecision, in good condition
Visual slope indicator: 2-light PAPI on left (3.10 degrees glide path)2-light PAPI on left (3.00 degrees glide path)
Runway end identifier lights: yesyes
Touchdown point: yes, no lightsyes, no lights
Obstructions: 31 ft. trees, 1350 ft. from runway, 177 ft. left of centerline, 37:1 slope to clearnone

Airport Ownership and Management from official FAA records

Ownership: Publicly-owned
Owner: BRECKINRIDGE CO ARPT BOARD
BOX 188
HARDINSBURG, KY 40143
Phone (270) 456-6062
Manager: BRECKINRIDGE CO ARPT BOARD
799 OAK STREET
HARDINSBURG, KY 40143
Phone (270) 456-6062
AIR BOARD CHAIR - MILLER MONARCH.

Airport Operational Statistics

Aircraft based on the field: 4
Single engine airplanes: 2
Multi engine airplanes: 2
    
Aircraft operations: avg 25/week *
46% local general aviation
39% transient general aviation
15% air taxi
* for 12-month period ending 22 November 2017

Additional Remarks

FUEL AVBL 24 HRS W/CREDIT CARD
FOR CD CTC LOUISVILLE APCH AT 502-375-7499

Instrument Procedures

NOTE: All procedures below are presented as PDF files. If you need a reader for these files, you should download the free Adobe Reader.

NOT FOR NAVIGATION. Please procure official charts for flight.
FAA instrument procedures published for use from 02 January 2020 at 0901Z to 30 January 2020 at 0900Z.

 
IAPs - Instrument Approach Procedures
RNAV (GPS) RWY 10   download (184KB)
RNAV (GPS) RWY 28   download (190KB)
NOTE: Special Take-Off Minimums/Departure Procedures apply   download (279KB)

Other nearby airports with instrument procedures:

KTEL - Perry County Municipal Airport (18 nm NW)
KY8 - Hancock County Airport-Ron Lewis Field (22 nm NW)
KFTK - Godman Army Airfield (23 nm E)
M20 - Leitchfield-Grayson County Airport (25 nm S)
KEKX - Addington Field Airport (25 nm E)
 
Loc | Ops | Rwys | IFR | FBO | Links
Com | Nav | Svcs | Stats | Notes
Area around I93 (Breckinridge County Airport)
 
Road maps at: MapQuest Bing Google
 
Aerial photo
WARNING: Photo may not be current or correct
Aerial photo of I93 (Breckinridge County Airport)
looking north.

Do you have a better or more recent aerial photo of Breckinridge County Airport that you would like to share? If so, please send us your photo.

 
Sectional chart

 
Airport distance calculator
Flying to Breckinridge County Airport? Find the distance to fly.

From to I93

Sunrise and sunset
Times for 22-Jan-2020
 Local
(UTC-6)
 Zulu
(UTC)
Morning civil twilight06:3012:30
Sunrise06:5812:58
Sunset16:5722:57
Evening civil twilight17:2523:25

Current date and time
Zulu (UTC)  22-Jan-2020 19:05:38
Local (UTC-6)  22-Jan-2020 13:05:38
 
METAR
KKY8 
22nm NW 
221855Z AUTO VRB06KT 10SM CLR 04/M09 A3031 RMK A01
KFTK 
23nm E 
221856Z AUTO 16006KT 10SM CLR 04/M08 A3031 RMK AO2 SLP276 T00371083 $
KEKX 
28nm E 
221855Z AUTO 15004KT 10SM CLR 03/M07 A3032 RMK AO2 T00301073
KOWB 
35nm W 
221856Z 19006KT 10SM CLR 02/M06 A3032 RMK AO2 SLP273 T00171061
KHNB 
37nm NW 
221856Z AUTO VRB05KT 10SM CLR 02/M06 A3031 RMK AO2 SLP272 T00171061 FZRANO
KSDF 
41nm NE 
221856Z VRB03KT 10SM OVC240 03/M08 A3032 RMK AO2 PRESFR SLP272 T00331083
KFRH 
44nm N 
221855Z AUTO 21004KT 10SM CLR 01/M08 A3030 RMK AO1
TAF
KFTK 
23nm E 
221700Z 2217/2323 VRB06KT 9999 SKC QNH3019INS BECMG 2314/2315 15009KT 9999 SCT050 BKN080 620802 QNH3021INS BECMG 2320/2321 14009KT 9999 OVC010 620604 QNH3009INS TX02/2317Z TN00/2217Z
NOTAMs
Click for the latest NOTAMs
NOTAMs are issued by the DoD/FAA and will open in a separate window not controlled by AirNav.

 

 
 

FBO, Fuel Providers, and Aircraft Ground Support

  
 Business Name 
 
 Contact 
 
 Services / Description 
 
Fuel Prices
 
Comments
  
Breckinridge County Airport 270-617-1111
[email]
Airport management, Aviation fuel, Aircraft parking (ramp or tiedown), Passenger terminal and lounge, Rental cars delivered, Pilots lounge / snooze room, ...

More info about Breckinridge County Airport
Shell
100LL
SS $4.59 
 Updated 10-Jan-2020
 
   2 read write
SS=Self service
Update Fuel Prices
 

Would you like to see your business listed on this page?

 If your business provides an interesting product or service to pilots, flight crews, aircraft, or users of the Breckinridge County Airport, you should consider listing it here.  To start the listing process, click on the button below
 
Add a business
 

Other Pages about Breckinridge County Airport

Update a link
 
Copyright © AirNav, LLC. All rights reserved. Privacy Policy  Contact